Time;durP1;ratioP1;P1;durP2;ratioP2;P2;SDS_P1;SDS_P2;PMS_P1;PMS_P2;Temp;Humidity;BMP_temperature;BMP_pressure;BME280_temperature;BME280_humidity;BME280_pressure;Samples;Min_cycle;Max_cycle;Signal;HPM_P1;HPM_P2
2022/03/07 00:02:11;;;;;;;;;;;;;;;;;;5090191;28;20235;-58
2022/03/07 00:04:38;;;;;;;;;;;;;;;;;;5087346;28;19912;-57
2022/03/07 00:07:04;;;;;;;;;;;;;;;;;;5089542;28;20022;-52
2022/03/07 00:09:31;;;;;;;;;;;;;;;;;;5090030;28;19993;-54
2022/03/07 00:11:57;;;;;;;;;;;;;;;;;;5089394;28;19922;-56
2022/03/07 00:14:24;;;;;;;;;;;;;;;;;;5086617;28;19908;-58
2022/03/07 00:16:50;;;;;;;;;;;;;;;;;;5089535;28;19927;-56
2022/03/07 00:19:16;;;;;;;;;;;;;;;;;;5089777;28;19934;-57
2022/03/07 00:21:43;;;;;;;;;;;;;;;;;;5090143;28;19908;-54
2022/03/07 00:24:10;;;;;;;;;;;;;;;;;;5088190;28;19908;-50
2022/03/07 00:26:36;;;;;;;;;;;;;;;;;;5088306;28;19908;-56
2022/03/07 00:29:03;;;;;;;;;;;;;;;;;;5089183;28;19937;-58
2022/03/07 00:31:29;;;;;;;;;;;;;;;;;;5088553;28;19977;-59
2022/03/07 00:33:56;;;;;;;;;;;;;;;;;;5086568;28;19915;-60
2022/03/07 00:36:22;;;;;;;;;;;;;;;;;;5089306;28;20003;-54
2022/03/07 00:38:49;;;;;;;;;;;;;;;;;;5089756;28;20309;-52
2022/03/07 00:41:15;;;;;;;;;;;;;;;;;;5089199;28;19937;-56
2022/03/07 00:43:42;;;;;;;;;;;;;;;;;;5087065;28;19920;-55
2022/03/07 00:46:08;;;;;;;;;;;;;;;;;;5089976;28;19912;-55
2022/03/07 00:48:35;;;;;;;;;;;;;;;;;;5089616;28;20282;-58
2022/03/07 00:51:01;;;;;;;;;;;;;;;;;;5088974;28;20291;-52
2022/03/07 00:53:28;;;;;;;;;;;;;;;;;;5087102;28;20374;-54
2022/03/07 00:55:54;;;;;;;;;;;;;;;;;;5088233;28;19995;-53
2022/03/07 00:58:21;;;;;;;;;;;;;;;;;;5088154;28;19912;-58
2022/03/07 01:00:47;;;;;;;;;;;;;;;;;;5088510;28;19908;-57
2022/03/07 01:03:14;;;;;;;;;;;;;;;;;;5087552;28;19927;-64
2022/03/07 01:05:40;;;;;;;;;;;;;;;;;;5088207;28;19930;-57
2022/03/07 01:21:51;;;;;;;;;;;;;;;;;;5482913;22;19936;-52
2022/03/07 01:24:18;;;;;;;;;;;;;;;;;;5022785;28;20294;-53
2022/03/07 01:26:46;;;;;;;;;;;;;;;;;;5024312;28;19913;-44
2022/03/07 01:29:12;;;;;;;;;;;;;;;;;;5017876;28;19929;-39
2022/03/07 01:31:39;;;;;;;;;;;;;;;;;;5024374;28;19983;-45
2022/03/07 01:34:05;;;;;;;;;;;;;;;;;;5016176;28;19915;-52
2022/03/07 01:36:32;;;;;;;;;;;;;;;;;;5022878;28;19909;-46
2022/03/07 01:38:58;;;;;;;;;;;;;;;;;;5024277;28;19909;-46
2022/03/07 01:41:25;;;;;;;;;;;;;;;;;;5030734;28;19913;-60
2022/03/07 01:43:51;;;;;;;;;;;;;;;;;;5015378;28;19948;-62
2022/03/07 01:46:17;;;;;;;;;;;;;;;;;;5027862;28;19909;-61
2022/03/07 01:48:44;;;;;;;;;;;;;;;;;;5014291;28;19970;-65
2022/03/07 01:51:11;;;;;;;;;;;;;;;;;;5032312;28;19910;-60
2022/03/07 01:53:37;;;;;;;;;;;;;;;;;;5022588;28;19917;-59
2022/03/07 01:56:04;;;;;;;;;;;;;;;;;;5032080;28;20274;-68
2022/03/07 01:58:30;;;;;;;;;;;;;;;;;;5035148;28;19920;-66
2022/03/07 02:00:57;;;;;;;;;;;;;;;;;;5034155;28;19916;-65
2022/03/07 02:03:23;;;;;;;;;;;;;;;;;;5035476;28;19924;-66
2022/03/07 02:05:50;;;;;;;;;;;;;;;;;;5034934;28;19909;-65
2022/03/07 02:08:16;;;;;;;;;;;;;;;;;;5035564;28;20000;-63
2022/03/07 02:10:43;;;;;;;;;;;;;;;;;;5035125;28;19994;-62
2022/03/07 02:13:09;;;;;;;;;;;;;;;;;;5034911;28;19913;-65
2022/03/07 02:15:36;;;;;;;;;;;;;;;;;;5035096;28;19909;-65
2022/03/07 02:18:02;;;;;;;;;;;;;;;;;;5034657;28;19913;-63
2022/03/07 02:20:29;;;;;;;;;;;;;;;;;;5034300;28;19936;-64
2022/03/07 02:22:55;;;;;;;;;;;;;;;;;;5034286;28;19921;-65
2022/03/07 02:25:21;;;;;;;;;;;;;;;;;;5034814;28;19909;-67
2022/03/07 02:27:48;;;;;;;;;;;;;;;;;;5034890;28;19969;-63
2022/03/07 02:30:14;;;;;;;;;;;;;;;;;;5035190;28;19916;-62
2022/03/07 02:32:41;;;;;;;;;;;;;;;;;;5034537;28;20385;-66
2022/03/07 02:35:08;;;;;;;;;;;;;;;;;;5024753;28;19919;-65
2022/03/07 02:37:34;;;;;;;;;;;;;;;;;;5029394;28;19913;-64
2022/03/07 02:40:01;;;;;;;;;;;;;;;;;;5029195;28;20413;-64
2022/03/07 02:42:27;;;;;;;;;;;;;;;;;;5028735;28;20254;-59
2022/03/07 02:44:54;;;;;;;;;;;;;;;;;;5030561;28;19914;-64
2022/03/07 02:47:23;;;;;;;;;;;;;;;;;;5029333;28;19917;-62
2022/03/07 02:49:50;;;;;;;;;;;;;;;;;;5028483;28;20367;-63
2022/03/07 02:52:25;;;;;;;;;;;;;;;;;;5028474;28;19916;-63
2022/03/07 02:54:55;;;;;;;;;;;;;;;;;;5030691;28;20015;-62
2022/03/07 02:57:28;;;;;;;;;;;;;;;;;;5029224;28;20379;-65
2022/03/07 02:59:57;;;;;;;;;;;;;;;;;;5031090;28;19913;-62
2022/03/07 03:02:24;;;;;;;;;;;;;;;;;;5026760;28;19910;-62
2022/03/07 03:04:50;;;;;;;;;;;;;;;;;;5029552;28;19925;-66
2022/03/07 03:07:23;;;;;;;;;;;;;;;;;;5031054;28;19963;-65
2022/03/07 03:09:49;;;;;;;;;;;;;;;;;;5027953;28;19917;-63
2022/03/07 03:12:16;;;;;;;;;;;;;;;;;;5022867;28;19968;-65
2022/03/07 03:14:42;;;;;;;;;;;;;;;;;;5008949;28;19956;-65
2022/03/07 03:17:09;;;;;;;;;;;;;;;;;;5030329;28;19909;-64
2022/03/07 03:19:35;;;;;;;;;;;;;;;;;;5028042;28;19992;-64
2022/03/07 03:22:02;;;;;;;;;;;;;;;;;;5024478;28;19977;-64
2022/03/07 03:24:28;;;;;;;;;;;;;;;;;;5028466;28;20074;-65
2022/03/07 03:26:55;;;;;;;;;;;;;;;;;;5030301;28;19920;-66
2022/03/07 03:29:22;;;;;;;;;;;;;;;;;;5024873;28;19960;-66
2022/03/07 03:31:51;;;;;;;;;;;;;;;;;;5026799;28;19920;-64
2022/03/07 03:34:18;;;;;;;;;;;;;;;;;;5029038;28;20405;-65
2022/03/07 03:36:45;;;;;;;;;;;;;;;;;;5026160;28;19953;-65
2022/03/07 03:39:21;;;;;;;;;;;;;;;;;;5029615;28;19975;-62
2022/03/07 03:41:47;;;;;;;;;;;;;;;;;;5024177;28;19920;-64
2022/03/07 03:44:17;;;;;;;;;;;;;;;;;;5028227;28;19937;-64
2022/03/07 03:46:43;;;;;;;;;;;;;;;;;;5011167;28;20000;-62
2022/03/07 03:49:10;;;;;;;;;;;;;;;;;;5028057;28;20342;-62
2022/03/07 03:51:36;;;;;;;;;;;;;;;;;;5025411;28;19910;-63
2022/03/07 03:54:03;;;;;;;;;;;;;;;;;;5027426;28;19916;-64
2022/03/07 03:56:29;;;;;;;;;;;;;;;;;;5029406;28;20397;-63
2022/03/07 03:58:56;;;;;;;;;;;;;;;;;;5029113;28;20000;-63
2022/03/07 04:01:23;;;;;;;;;;;;;;;;;;5013287;28;19976;-59
2022/03/07 04:03:49;;;;;;;;;;;;;;;;;;5022629;28;19920;-66
2022/03/07 04:06:16;;;;;;;;;;;;;;;;;;5009127;28;19916;-67
2022/03/07 04:08:42;;;;;;;;;;;;;;;;;;5011738;28;20359;-66
2022/03/07 04:11:09;;;;;;;;;;;;;;;;;;5032878;28;19975;-63
2022/03/07 04:13:36;;;;;;;;;;;;;;;;;;5032177;28;20346;-67
2022/03/07 04:16:03;;;;;;;;;;;;;;;;;;5028818;28;19963;-66
2022/03/07 04:18:29;;;;;;;;;;;;;;;;;;5026325;28;19913;-63
2022/03/07 04:20:56;;;;;;;;;;;;;;;;;;5021928;28;19913;-56
2022/03/07 04:23:24;;;;;;;;;;;;;;;;;;5027198;28;20310;-62
2022/03/07 04:25:50;;;;;;;;;;;;;;;;;;5029649;28;19910;-64
2022/03/07 04:28:17;;;;;;;;;;;;;;;;;;5026412;28;19927;-65
2022/03/07 04:30:43;;;;;;;;;;;;;;;;;;5024190;28;19913;-63
2022/03/07 04:33:11;;;;;;;;;;;;;;;;;;5028036;28;19913;-65
2022/03/07 04:35:38;;;;;;;;;;;;;;;;;;5009253;28;19913;-63
2022/03/07 04:38:07;;;;;;;;;;;;;;;;;;5026364;28;19909;-54
2022/03/07 04:40:41;;;;;;;;;;;;;;;;;;5020991;28;20351;-58
2022/03/07 04:43:11;;;;;;;;;;;;;;;;;;5025263;28;20007;-56
2022/03/07 04:45:47;;;;;;;;;;;;;;;;;;5023309;28;19913;-54
2022/03/07 04:48:24;;;;;;;;;;;;;;;;;;5023545;28;20060;-62
2022/03/07 04:51:01;;;;;;;;;;;;;;;;;;;;;
2022/03/07 04:53:43;;;;;;;;;;;;;;;;;;5015220;28;19909;-55
2022/03/07 04:56:29;;;;;;;;;;;;;;;;;;;;;
2022/03/07 04:59:29;;;;;;;;;;;;;;;;;;5024246;28;19932;-59
2022/03/07 05:01:52;;;;;;;;;;;;;;;;;;5022912;28;19909;-56
2022/03/07 05:04:31;;;;;;;;;;;;;;;;;;5021904;28;20210;-60
2022/03/07 05:06:58;;;;;;;;;;;;;;;;;;5023999;28;20004;-57
2022/03/07 05:09:25;;;;;;;;;;;;;;;;;;5015488;28;19921;-58
2022/03/07 05:11:52;;;;;;;;;;;;;;;;;;5024379;28;19918;-57
2022/03/07 05:14:18;;;;;;;;;;;;;;;;;;5025606;28;20449;-59
2022/03/07 05:16:45;;;;;;;;;;;;;;;;;;5023221;28;19913;-59
2022/03/07 05:19:12;;;;;;;;;;;;;;;;;;5021658;28;19917;-63
2022/03/07 05:21:41;;;;;;;;;;;;;;;;;;5027386;28;20310;-57
2022/03/07 05:26:52;;;;;;;;;;;;;;;;;;5027725;28;20463;-61
2022/03/07 05:29:19;;;;;;;;;;;;;;;;;;5022553;28;19932;-59
2022/03/07 05:31:46;;;;;;;;;;;;;;;;;;5028873;28;19917;-61
2022/03/07 05:34:13;;;;;;;;;;;;;;;;;;5026704;28;19917;-63
2022/03/07 05:36:48;;;;;;;;;;;;;;;;;;5028866;28;20260;-61
2022/03/07 05:39:19;;;;;;;;;;;;;;;;;;5020299;28;19921;-61
2022/03/07 05:41:46;;;;;;;;;;;;;;;;;;5024428;28;19917;-62
2022/03/07 05:44:32;;;;;;;;;;;;;;;;;;;;;
2022/03/07 05:46:59;;;;;;;;;;;;;;;;;;5007744;28;19909;-60
2022/03/07 05:49:26;;;;;;;;;;;;;;;;;;5020092;28;19925;-61
2022/03/07 05:51:56;;;;;;;;;;;;;;;;;;4990443;28;19955;-56
2022/03/07 05:54:29;;;;;;;;;;;;;;;;;;5028346;28;19913;-55
2022/03/07 05:57:06;;;;;;;;;;;;;;;;;;;;;
2022/03/07 05:59:37;;;;;;;;;;;;;;;;;;4972902;28;19916;-62
2022/03/07 06:05:20;;;;;;;;;;;;;;;;;;;;;
2022/03/07 06:07:48;;;;;;;;;;;;;;;;;;4948686;29;20110;-57
2022/03/07 06:18:49;;;;;;;;;;;;;;;;;;4908807;29;19915;-60
2022/03/07 06:21:23;;;;;;;;;;;;;;;;;;4932851;28;19926;-58
2022/03/07 06:23:50;;;;;;;;;;;;;;;;;;4930057;29;20337;-50
2022/03/07 06:26:17;;;;;;;;;;;;;;;;;;4988484;28;20485;-54
2022/03/07 06:28:44;;;;;;;;;;;;;;;;;;5001824;28;19925;-53
2022/03/07 06:31:11;;;;;;;;;;;;;;;;;;5020236;28;19916;-53
2022/03/07 06:36:13;;;;;;;;;;;;;;;;;;5950855;23;20455;-60
2022/03/07 06:38:40;;;;;;;;;;;;;;;;;;5023667;28;19921;-60
2022/03/07 06:41:06;;;;;;;;;;;;;;;;;;5009773;28;19909;-62
2022/03/07 06:43:33;;;;;;;;;;;;;;;;;;5014542;28;20387;-63
2022/03/07 06:45:59;;;;;;;;;;;;;;;;;;5014521;28;19909;-56
2022/03/07 06:48:26;;;;;;;;;;;;;;;;;;5014289;28;19917;-61
2022/03/07 06:50:52;;;;;;;;;;;;;;;;;;5013470;28;19999;-63
2022/03/07 06:53:19;;;;;;;;;;;;;;;;;;5013957;28;20367;-60
2022/03/07 06:55:45;;;;;;;;;;;;;;;;;;5014404;28;19940;-58
2022/03/07 06:58:12;;;;;;;;;;;;;;;;;;5014537;28;19905;-53
2022/03/07 07:00:38;;;;;;;;;;;;;;;;;;5014810;28;19910;-63
2022/03/07 07:03:05;;;;;;;;;;;;;;;;;;5013447;28;20120;-65
2022/03/07 07:05:32;;;;;;;;;;;;;;;;;;5012189;28;20000;-62
2022/03/07 07:07:59;;;;;;;;;;;;;;;;;;5013944;28;20256;-60
2022/03/07 07:10:25;;;;;;;;;;;;;;;;;;5014418;28;19932;-60
2022/03/07 07:12:52;;;;;;;;;;;;;;;;;;5014146;28;19906;-63
2022/03/07 07:15:19;;;;;;;;;;;;;;;;;;5014051;28;19913;-63
2022/03/07 07:17:45;;;;;;;;;;;;;;;;;;5014521;28;19949;-65
2022/03/07 07:20:12;;;;;;;;;;;;;;;;;;5013506;28;20339;-60
2022/03/07 07:22:38;;;;;;;;;;;;;;;;;;5013690;28;19932;-62
2022/03/07 07:25:05;;;;;;;;;;;;;;;;;;5013155;28;19909;-58
2022/03/07 07:27:31;;;;;;;;;;;;;;;;;;5014203;28;19918;-65
2022/03/07 07:29:58;;;;;;;;;;;;;;;;;;5013905;28;19955;-64
2022/03/07 07:32:24;;;;;;;;;;;;;;;;;;4996843;28;20363;-59
2022/03/07 07:34:50;;;;;;;;;;;;;;;;;;5012555;28;20297;-63
2022/03/07 07:37:17;;;;;;;;;;;;;;;;;;5012635;28;20020;-64
2022/03/07 07:39:43;;;;;;;;;;;;;;;;;;5013312;28;19909;-64
2022/03/07 07:42:10;;;;;;;;;;;;;;;;;;5013584;28;20251;-65
2022/03/07 07:44:36;;;;;;;;;;;;;;;;;;5013534;28;19916;-62
2022/03/07 07:47:03;;;;;;;;;;;;;;;;;;5013927;28;19944;-64
2022/03/07 07:49:31;;;;;;;;;;;;;;;;;;5013974;28;19910;-62
2022/03/07 07:51:57;;;;;;;;;;;;;;;;;;5013059;28;19917;-64
2022/03/07 07:54:24;;;;;;;;;;;;;;;;;;5013325;28;19955;-65
2022/03/07 07:56:50;;;;;;;;;;;;;;;;;;5013478;28;19913;-61
2022/03/07 07:59:18;;;;;;;;;;;;;;;;;;5013499;28;20374;-60
2022/03/07 08:01:44;;;;;;;;;;;;;;;;;;4994024;28;19917;-53
2022/03/07 08:04:12;;;;;;;;;;;;;;;;;;5009014;28;20308;-57
2022/03/07 08:06:39;;;;;;;;;;;;;;;;;;5012490;28;19963;-54
2022/03/07 08:09:05;;;;;;;;;;;;;;;;;;5013334;28;19982;-64
2022/03/07 08:11:32;;;;;;;;;;;;;;;;;;5012743;28;20331;-60
2022/03/07 08:13:58;;;;;;;;;;;;;;;;;;5012568;28;19913;-57
2022/03/07 08:16:25;;;;;;;;;;;;;;;;;;5013628;28;19909;-60
2022/03/07 08:18:51;;;;;;;;;;;;;;;;;;5013567;28;19910;-61
2022/03/07 08:21:21;;;;;;;;;;;;;;;;;;5013604;28;20268;-65
2022/03/07 08:23:48;;;;;;;;;;;;;;;;;;5013418;28;20256;-63
2022/03/07 08:26:14;;;;;;;;;;;;;;;;;;5013609;28;19996;-63
2022/03/07 08:28:40;;;;;;;;;;;;;;;;;;5013330;28;19917;-65
2022/03/07 08:31:07;;;;;;;;;;;;;;;;;;5013875;28;20005;-62
2022/03/07 08:33:33;;;;;;;;;;;;;;;;;;5013540;28;20378;-61
2022/03/07 08:36:00;;;;;;;;;;;;;;;;;;5012930;28;19921;-66
2022/03/07 08:38:27;;;;;;;;;;;;;;;;;;5013825;28;19931;-64
2022/03/07 08:40:53;;;;;;;;;;;;;;;;;;5013964;28;20279;-59
2022/03/07 08:43:20;;;;;;;;;;;;;;;;;;5013249;28;19951;-58
2022/03/07 08:45:46;;;;;;;;;;;;;;;;;;4995189;28;19909;-61
2022/03/07 08:48:13;;;;;;;;;;;;;;;;;;5013176;28;19922;-62
2022/03/07 08:50:39;;;;;;;;;;;;;;;;;;4995895;28;20095;-62
2022/03/07 08:53:06;;;;;;;;;;;;;;;;;;5006234;28;19914;-60
2022/03/07 08:55:32;;;;;;;;;;;;;;;;;;5009013;28;19999;-58
2022/03/07 08:57:59;;;;;;;;;;;;;;;;;;5007978;28;19910;-52
2022/03/07 09:00:26;;;;;;;;;;;;;;;;;;5008224;28;19955;-57
2022/03/07 09:02:52;;;;;;;;;;;;;;;;;;5009487;28;19910;-63
2022/03/07 09:05:19;;;;;;;;;;;;;;;;;;5006771;28;20306;-52
2022/03/07 09:07:46;;;;;;;;;;;;;;;;;;5007553;28;19924;-64
2022/03/07 09:10:13;;;;;;;;;;;;;;;;;;5002527;28;19917;-52
2022/03/07 09:12:39;;;;;;;;;;;;;;;;;;5006408;28;20422;-61
2022/03/07 09:15:06;;;;;;;;;;;;;;;;;;5003661;28;19913;-57
2022/03/07 09:17:32;;;;;;;;;;;;;;;;;;5004127;28;19918;-65
2022/03/07 09:19:59;;;;;;;;;;;;;;;;;;5005687;28;20359;-50
2022/03/07 09:22:29;;;;;;;;;;;;;;;;;;5005051;28;19975;-52
2022/03/07 09:24:55;;;;;;;;;;;;;;;;;;5007428;28;19914;-59
2022/03/07 09:27:25;;;;;;;;;;;;;;;;;;5007446;28;19917;-51
2022/03/07 09:29:51;;;;;;;;;;;;;;;;;;5005475;28;19921;-52
2022/03/07 09:32:18;;;;;;;;;;;;;;;;;;5009967;28;19909;-52
2022/03/07 09:34:44;;;;;;;;;;;;;;;;;;5009677;28;19909;-56
2022/03/07 09:37:11;;;;;;;;;;;;;;;;;;5006029;28;19928;-57
2022/03/07 09:39:37;;;;;;;;;;;;;;;;;;5010398;28;20008;-59
2022/03/07 09:42:04;;;;;;;;;;;;;;;;;;4991321;28;19914;-56
2022/03/07 09:44:31;;;;;;;;;;;;;;;;;;5009407;28;19918;-58
2022/03/07 09:46:57;;;;;;;;;;;;;;;;;;5006914;28;19982;-53
2022/03/07 09:49:24;;;;;;;;;;;;;;;;;;5009620;28;19909;-50
2022/03/07 09:51:51;;;;;;;;;;;;;;;;;;5006114;28;19909;-52
2022/03/07 09:54:17;;;;;;;;;;;;;;;;;;5007148;28;19928;-52
2022/03/07 09:56:47;;;;;;;;;;;;;;;;;;5004941;28;20356;-45
2022/03/07 09:59:13;;;;;;;;;;;;;;;;;;5008683;28;19910;-48
2022/03/07 10:01:40;;;;;;;;;;;;;;;;;;5011683;28;20368;-52
2022/03/07 10:04:08;;;;;;;;;;;;;;;;;;5012807;28;19909;-51
2022/03/07 10:06:34;;;;;;;;;;;;;;;;;;5010901;28;19925;-48
2022/03/07 10:09:01;;;;;;;;;;;;;;;;;;5012575;28;19924;-50
2022/03/07 10:11:28;;;;;;;;;;;;;;;;;;5011794;28;20594;-57
2022/03/07 10:13:54;;;;;;;;;;;;;;;;;;5012112;28;19914;-47
2022/03/07 10:16:21;;;;;;;;;;;;;;;;;;5010368;28;19917;-47
2022/03/07 10:18:47;;;;;;;;;;;;;;;;;;5013362;28;20423;-49
2022/03/07 10:21:14;;;;;;;;;;;;;;;;;;5012275;28;19996;-57
2022/03/07 10:23:40;;;;;;;;;;;;;;;;;;5012879;28;20020;-62
2022/03/07 10:26:07;;;;;;;;;;;;;;;;;;5010443;28;19921;-61
2022/03/07 10:28:34;;;;;;;;;;;;;;;;;;5012839;28;19918;-55
2022/03/07 10:31:00;;;;;;;;;;;;;;;;;;5012623;28;19944;-71
2022/03/07 10:33:27;;;;;;;;;;;;;;;;;;5012879;28;20398;-67
2022/03/07 10:35:53;;;;;;;;;;;;;;;;;;5010022;28;20000;-65
2022/03/07 10:38:22;;;;;;;;;;;;;;;;;;5011770;28;20024;-70
2022/03/07 10:40:52;;;;;;;;;;;;;;;;;;5012634;28;19913;-62
2022/03/07 10:43:18;;;;;;;;;;;;;;;;;;5012550;28;19964;-64
2022/03/07 10:45:45;;;;;;;;;;;;;;;;;;5009360;28;19948;-49
2022/03/07 10:48:11;;;;;;;;;;;;;;;;;;5012378;28;20538;-51
2022/03/07 10:50:38;;;;;;;;;;;;;;;;;;5012130;28;19935;-61
2022/03/07 10:53:04;;;;;;;;;;;;;;;;;;5009854;28;19925;-62
2022/03/07 10:55:30;;;;;;;;;;;;;;;;;;5009420;28;20108;-61
2022/03/07 10:57:57;;;;;;;;;;;;;;;;;;5012820;28;20035;-58
2022/03/07 11:00:24;;;;;;;;;;;;;;;;;;5012526;28;19910;-57
2022/03/07 11:02:50;;;;;;;;;;;;;;;;;;5012821;28;19918;-56
2022/03/07 11:05:17;;;;;;;;;;;;;;;;;;5008726;28;20073;-56
2022/03/07 11:07:43;;;;;;;;;;;;;;;;;;5012653;28;19929;-44
2022/03/07 11:10:10;;;;;;;;;;;;;;;;;;5012543;28;20008;-51
2022/03/07 11:12:36;;;;;;;;;;;;;;;;;;5011086;28;20003;-47
2022/03/07 11:15:08;;;;;;;;;;;;;;;;;;5010700;28;20264;-51
2022/03/07 11:17:34;;;;;;;;;;;;;;;;;;5010579;28;20368;-48
2022/03/07 11:20:01;;;;;;;;;;;;;;;;;;5011498;28;20255;-49
2022/03/07 11:22:27;;;;;;;;;;;;;;;;;;5011774;28;20363;-44
2022/03/07 11:24:54;;;;;;;;;;;;;;;;;;5011307;28;19924;-47
2022/03/07 11:27:20;;;;;;;;;;;;;;;;;;5008906;28;19925;-45
2022/03/07 11:29:47;;;;;;;;;;;;;;;;;;5010858;28;20313;-46
2022/03/07 11:32:14;;;;;;;;;;;;;;;;;;5011710;28;19917;-46
2022/03/07 11:34:40;;;;;;;;;;;;;;;;;;5011386;28;19917;-50
2022/03/07 11:37:07;;;;;;;;;;;;;;;;;;5008576;28;19921;-50
2022/03/07 11:39:33;;;;;;;;;;;;;;;;;;5011066;28;20013;-50
2022/03/07 11:42:00;;;;;;;;;;;;;;;;;;5010626;28;19987;-52
2022/03/07 11:44:26;;;;;;;;;;;;;;;;;;5010559;28;19913;-47
2022/03/07 11:46:53;;;;;;;;;;;;;;;;;;5008332;28;19917;-48
2022/03/07 11:49:19;;;;;;;;;;;;;;;;;;5010643;28;19924;-50
2022/03/07 11:51:46;;;;;;;;;;;;;;;;;;5012539;28;19910;-64
2022/03/07 11:54:12;;;;;;;;;;;;;;;;;;5011037;28;20111;-64
2022/03/07 11:56:39;;;;;;;;;;;;;;;;;;5014196;28;19910;-63
2022/03/07 11:59:06;;;;;;;;;;;;;;;;;;5013899;28;19978;-64
2022/03/07 12:01:32;;;;;;;;;;;;;;;;;;5014003;28;19917;-64
2022/03/07 12:03:59;;;;;;;;;;;;;;;;;;5013532;28;20011;-60
2022/03/07 12:06:26;;;;;;;;;;;;;;;;;;5013759;28;20316;-55
2022/03/07 12:08:53;;;;;;;;;;;;;;;;;;5013039;28;19918;-62
2022/03/07 12:11:23;;;;;;;;;;;;;;;;;;5012769;28;20222;-61
2022/03/07 12:13:49;;;;;;;;;;;;;;;;;;5013290;28;19932;-61
2022/03/07 12:16:17;;;;;;;;;;;;;;;;;;5013453;28;19913;-52
2022/03/07 12:18:43;;;;;;;;;;;;;;;;;;5013077;28;20414;-56
2022/03/07 12:21:09;;;;;;;;;;;;;;;;;;5013354;28;19905;-60
2022/03/07 12:23:37;;;;;;;;;;;;;;;;;;5012441;28;19909;-55
2022/03/07 12:26:04;;;;;;;;;;;;;;;;;;5013418;28;19909;-62
2022/03/07 12:28:30;;;;;;;;;;;;;;;;;;5013421;28;20394;-54
2022/03/07 12:30:57;;;;;;;;;;;;;;;;;;5013522;28;19962;-59
2022/03/07 12:33:23;;;;;;;;;;;;;;;;;;5013319;28;19917;-57
2022/03/07 12:35:50;;;;;;;;;;;;;;;;;;5003788;28;20059;-55
2022/03/07 12:38:16;;;;;;;;;;;;;;;;;;5009055;28;19921;-48
2022/03/07 12:40:43;;;;;;;;;;;;;;;;;;5008292;28;20353;-48
2022/03/07 12:43:09;;;;;;;;;;;;;;;;;;5009984;28;20376;-53
2022/03/07 12:45:36;;;;;;;;;;;;;;;;;;5009377;28;20000;-56
2022/03/07 12:48:02;;;;;;;;;;;;;;;;;;5009764;28;20504;-59
2022/03/07 12:50:32;;;;;;;;;;;;;;;;;;5009003;28;19918;-46
2022/03/07 12:52:58;;;;;;;;;;;;;;;;;;5010241;28;19939;-49
2022/03/07 12:55:25;;;;;;;;;;;;;;;;;;5009482;28;19972;-60
2022/03/07 12:57:51;;;;;;;;;;;;;;;;;;5009612;28;19916;-54
2022/03/07 13:00:18;;;;;;;;;;;;;;;;;;5008685;28;19945;-57
2022/03/07 13:02:44;;;;;;;;;;;;;;;;;;5009221;28;19910;-56
2022/03/07 13:05:10;;;;;;;;;;;;;;;;;;5009505;28;20315;-56
2022/03/07 13:07:37;;;;;;;;;;;;;;;;;;5009984;28;20339;-58
2022/03/07 13:10:03;;;;;;;;;;;;;;;;;;5007562;28;20291;-61
2022/03/07 13:12:30;;;;;;;;;;;;;;;;;;5009575;28;20290;-49
2022/03/07 13:14:56;;;;;;;;;;;;;;;;;;5009995;28;19925;-62
2022/03/07 13:17:24;;;;;;;;;;;;;;;;;;5010164;28;19948;-63
2022/03/07 13:19:51;;;;;;;;;;;;;;;;;;5007180;28;20049;-63
2022/03/07 13:22:17;;;;;;;;;;;;;;;;;;5009715;28;19917;-48
2022/03/07 13:24:44;;;;;;;;;;;;;;;;;;5009970;28;19910;-61
2022/03/07 13:27:10;;;;;;;;;;;;;;;;;;5009716;28;19913;-58
2022/03/07 13:29:37;;;;;;;;;;;;;;;;;;5006865;28;20002;-55
2022/03/07 13:32:03;;;;;;;;;;;;;;;;;;5009617;28;19936;-60
2022/03/07 13:34:31;;;;;;;;;;;;;;;;;;5009413;28;19953;-62
2022/03/07 13:36:58;;;;;;;;;;;;;;;;;;5012089;28;19967;-61
2022/03/07 13:39:24;;;;;;;;;;;;;;;;;;5009753;28;19916;-60
2022/03/07 13:41:51;;;;;;;;;;;;;;;;;;5013415;28;19914;-62
2022/03/07 13:44:17;;;;;;;;;;;;;;;;;;5013378;28;20275;-60
2022/03/07 13:46:44;;;;;;;;;;;;;;;;;;5013183;28;19917;-62
2022/03/07 13:49:10;;;;;;;;;;;;;;;;;;5009294;28;19925;-63
2022/03/07 13:51:36;;;;;;;;;;;;;;;;;;5013496;28;19910;-56
2022/03/07 13:54:03;;;;;;;;;;;;;;;;;;5012958;28;20371;-59
2022/03/07 13:56:30;;;;;;;;;;;;;;;;;;5012660;28;20356;-57
2022/03/07 13:58:56;;;;;;;;;;;;;;;;;;5010840;28;20655;-64
2022/03/07 14:01:23;;;;;;;;;;;;;;;;;;5011920;28;19913;-60
2022/03/07 14:03:49;;;;;;;;;;;;;;;;;;5012590;28;20259;-58
2022/03/07 14:06:16;;;;;;;;;;;;;;;;;;4994804;28;19917;-63
2022/03/07 14:08:42;;;;;;;;;;;;;;;;;;5011068;28;19972;-51
2022/03/07 14:11:09;;;;;;;;;;;;;;;;;;5013175;28;19910;-60
2022/03/07 14:13:36;;;;;;;;;;;;;;;;;;5010183;28;19919;-54
2022/03/07 14:16:02;;;;;;;;;;;;;;;;;;5012189;28;19914;-54
2022/03/07 14:18:28;;;;;;;;;;;;;;;;;;5012635;28;19909;-48
2022/03/07 14:20:55;;;;;;;;;;;;;;;;;;5012305;28;19916;-53
2022/03/07 14:23:21;;;;;;;;;;;;;;;;;;5012661;28;19909;-48
2022/03/07 14:25:48;;;;;;;;;;;;;;;;;;5012398;28;20394;-48
2022/03/07 14:28:14;;;;;;;;;;;;;;;;;;5012879;28;19918;-53
2022/03/07 14:30:41;;;;;;;;;;;;;;;;;;5011608;28;19928;-53
2022/03/07 14:33:07;;;;;;;;;;;;;;;;;;5012457;28;19957;-55
2022/03/07 14:35:34;;;;;;;;;;;;;;;;;;5011648;28;19909;-58
2022/03/07 14:38:00;;;;;;;;;;;;;;;;;;5012373;28;19925;-61
2022/03/07 14:40:26;;;;;;;;;;;;;;;;;;4993899;28;20352;-45
2022/03/07 14:42:53;;;;;;;;;;;;;;;;;;5012498;28;20255;-55
2022/03/07 14:45:19;;;;;;;;;;;;;;;;;;5011432;28;19910;-51
2022/03/07 14:47:47;;;;;;;;;;;;;;;;;;5011710;28;20007;-45
2022/03/07 14:50:13;;;;;;;;;;;;;;;;;;5012400;28;19913;-53
2022/03/07 14:52:40;;;;;;;;;;;;;;;;;;5009346;28;19914;-54
2022/03/07 14:55:09;;;;;;;;;;;;;;;;;;5012651;28;19973;-50
2022/03/07 14:57:35;;;;;;;;;;;;;;;;;;4995569;28;20049;-56
2022/03/07 15:00:03;;;;;;;;;;;;;;;;;;5003115;28;19924;-50
2022/03/07 15:02:29;;;;;;;;;;;;;;;;;;5009515;28;19916;-46
2022/03/07 15:04:56;;;;;;;;;;;;;;;;;;5012297;28;19917;-50
2022/03/07 15:07:22;;;;;;;;;;;;;;;;;;5011759;28;19917;-44
2022/03/07 15:09:49;;;;;;;;;;;;;;;;;;5011288;28;19916;-47
2022/03/07 15:12:15;;;;;;;;;;;;;;;;;;5009316;28;20010;-45
2022/03/07 15:14:42;;;;;;;;;;;;;;;;;;5012063;28;19960;-52
2022/03/07 15:17:08;;;;;;;;;;;;;;;;;;5012156;28;19910;-45
2022/03/07 15:19:35;;;;;;;;;;;;;;;;;;5011377;28;19917;-48
2022/03/07 15:22:01;;;;;;;;;;;;;;;;;;5008810;28;20396;-42
2022/03/07 15:24:30;;;;;;;;;;;;;;;;;;5011841;28;19916;-43
2022/03/07 15:26:57;;;;;;;;;;;;;;;;;;5010907;28;19987;-47
2022/03/07 15:29:23;;;;;;;;;;;;;;;;;;5011675;28;21849;-51
2022/03/07 15:31:50;;;;;;;;;;;;;;;;;;5008805;28;20276;-50
2022/03/07 15:34:16;;;;;;;;;;;;;;;;;;5011281;28;20021;-50
2022/03/07 15:36:43;;;;;;;;;;;;;;;;;;4992993;28;19921;-44
2022/03/07 15:39:09;;;;;;;;;;;;;;;;;;5011592;28;19920;-53
2022/03/07 15:41:36;;;;;;;;;;;;;;;;;;5008995;28;19945;-59
2022/03/07 15:44:03;;;;;;;;;;;;;;;;;;5010768;28;20000;-49
2022/03/07 15:46:29;;;;;;;;;;;;;;;;;;5010520;28;20257;-44
2022/03/07 15:48:56;;;;;;;;;;;;;;;;;;5011144;28;19985;-53
2022/03/07 15:51:22;;;;;;;;;;;;;;;;;;5008985;28;19909;-48
2022/03/07 15:53:49;;;;;;;;;;;;;;;;;;5011209;28;19909;-45
2022/03/07 15:56:15;;;;;;;;;;;;;;;;;;5010713;28;19924;-52
2022/03/07 15:58:45;;;;;;;;;;;;;;;;;;5010296;28;19917;-63
2022/03/07 16:01:11;;;;;;;;;;;;;;;;;;5008620;28;20322;-63
2022/03/07 16:03:40;;;;;;;;;;;;;;;;;;5010246;28;19932;-62
2022/03/07 16:06:07;;;;;;;;;;;;;;;;;;5009410;28;20000;-62
2022/03/07 16:08:33;;;;;;;;;;;;;;;;;;5011032;28;19924;-57
2022/03/07 16:11:02;;;;;;;;;;;;;;;;;;5007799;28;20153;-62
2022/03/07 16:13:28;;;;;;;;;;;;;;;;;;5011053;28;19919;-58
2022/03/07 16:15:54;;;;;;;;;;;;;;;;;;5011970;28;19909;-62
2022/03/07 16:18:21;;;;;;;;;;;;;;;;;;5013620;28;19965;-62
2022/03/07 16:20:49;;;;;;;;;;;;;;;;;;5013646;28;19913;-63
2022/03/07 16:23:21;;;;;;;;;;;;;;;;;;5014045;28;20333;-63
2022/03/07 16:25:47;;;;;;;;;;;;;;;;;;5013368;28;19909;-62
2022/03/07 16:28:14;;;;;;;;;;;;;;;;;;5013701;28;20004;-62
2022/03/07 16:30:42;;;;;;;;;;;;;;;;;;5013515;28;19913;-60
2022/03/07 16:33:09;;;;;;;;;;;;;;;;;;5013443;28;20427;-60
2022/03/07 16:35:35;;;;;;;;;;;;;;;;;;5013388;28;19905;-56
2022/03/07 16:38:02;;;;;;;;;;;;;;;;;;5013327;28;20020;-58
2022/03/07 16:40:28;;;;;;;;;;;;;;;;;;5013634;28;19912;-61
2022/03/07 16:42:56;;;;;;;;;;;;;;;;;;5012427;28;19993;-63
2022/03/07 16:45:22;;;;;;;;;;;;;;;;;;5013355;28;20095;-62
2022/03/07 16:47:48;;;;;;;;;;;;;;;;;;5012869;28;19971;-62
2022/03/07 16:50:17;;;;;;;;;;;;;;;;;;5013344;28;19913;-64
2022/03/07 16:52:44;;;;;;;;;;;;;;;;;;5013188;28;19949;-62
2022/03/07 16:55:10;;;;;;;;;;;;;;;;;;5013421;28;19917;-57
2022/03/07 16:57:37;;;;;;;;;;;;;;;;;;5013054;28;20008;-63
2022/03/07 17:00:03;;;;;;;;;;;;;;;;;;5012872;28;20288;-62
2022/03/07 17:02:30;;;;;;;;;;;;;;;;;;5013022;28;19932;-57
2022/03/07 17:04:56;;;;;;;;;;;;;;;;;;5013300;28;19916;-61
2022/03/07 17:07:23;;;;;;;;;;;;;;;;;;5013143;28;20244;-62
2022/03/07 17:09:49;;;;;;;;;;;;;;;;;;5014369;28;19913;-61
2022/03/07 17:12:16;;;;;;;;;;;;;;;;;;5019715;28;19909;-52
2022/03/07 17:14:46;;;;;;;;;;;;;;;;;;5019689;28;19931;-56
2022/03/07 17:17:13;;;;;;;;;;;;;;;;;;5019625;28;19909;-57
2022/03/07 17:19:39;;;;;;;;;;;;;;;;;;5019261;28;19909;-62